Time;durP1;ratioP1;P1;durP2;ratioP2;P2;SDS_P1;SDS_P2;PMS_P1;PMS_P2;Temp;Humidity;BMP_temperature;BMP_pressure;BME280_temperature;BME280_humidity;BME280_pressure;Samples;Min_cycle;Max_cycle;Signal;HPM_P1;HPM_P2
2022/09/01 00:01:14;;;;;;;6.03;3.92;;;17.70;99.90;;;;;;5002753;28;20094;-77
2022/09/01 00:03:39;;;;;;;6.40;3.70;;;17.70;99.90;;;;;;5002880;28;20039;-78
2022/09/01 00:06:08;;;;;;;6.17;3.80;;;17.70;99.90;;;;;;5004101;28;20026;-79
2022/09/01 00:08:34;;;;;;;6.55;4.05;;;17.70;99.90;;;;;;5003124;28;20393;-78
2022/09/01 00:11:00;;;;;;;7.23;3.77;;;17.70;99.90;;;;;;5004168;28;20073;-79
2022/09/01 00:13:26;;;;;;;7.37;4.27;;;17.70;99.90;;;;;;5002910;28;20022;-79
2022/09/01 00:15:52;;;;;;;4.07;3.43;;;17.80;99.90;;;;;;5004931;28;20018;-79
2022/09/01 00:18:17;;;;;;;4.53;3.67;;;17.80;99.90;;;;;;5010880;28;20316;-79
2022/09/01 00:20:43;;;;;;;5.50;4.10;;;17.80;99.90;;;;;;5009592;28;20045;-79
2022/09/01 00:23:09;;;;;;;6.70;3.80;;;17.80;99.90;;;;;;5008458;28;20034;-78
2022/09/01 00:25:35;;;;;;;4.17;3.53;;;17.80;99.90;;;;;;5009241;28;20042;-79
2022/09/01 00:28:03;;;;;;;4.35;3.95;;;17.80;99.90;;;;;;5004956;28;20093;-78
2022/09/01 00:30:29;;;;;;;5.38;4.18;;;17.80;99.90;;;;;;5005030;28;20022;-78
2022/09/01 00:32:55;;;;;;;6.43;4.30;;;17.80;99.90;;;;;;5003638;28;20207;-78
2022/09/01 00:35:21;;;;;;;4.43;3.63;;;17.80;99.90;;;;;;5004417;28;20023;-77
2022/09/01 00:37:46;;;;;;;4.33;3.73;;;17.80;99.90;;;;;;5003272;28;20101;-78
2022/09/01 00:40:13;;;;;;;4.93;3.37;;;17.80;99.90;;;;;;5003396;28;20085;-79
2022/09/01 00:42:39;;;;;;;4.85;4.00;;;17.80;99.90;;;;;;5003104;28;20126;-79
2022/09/01 00:45:06;;;;;;;4.10;3.57;;;17.70;99.90;;;;;;5003111;28;20030;-78
2022/09/01 00:47:34;;;;;;;;;;;17.70;99.90;;;;;;5003204;28;20057;-78
2022/09/01 00:50:00;;;;;;;5.30;4.20;;;17.70;99.90;;;;;;5004511;28;19968;-79
2022/09/01 00:52:34;;;;;;;4.60;4.10;;;17.70;99.90;;;;;;5003073;28;20022;-79
2022/09/01 00:55:08;;;;;;;4.85;4.03;;;17.60;99.90;;;;;;4989465;28;20085;-78
2022/09/01 00:57:34;;;;;;;5.07;4.45;;;17.70;99.90;;;;;;4989555;28;20030;-77
2022/09/01 01:00:07;;;;;;;4.90;3.60;;;17.70;99.90;;;;;;5005160;28;20030;-77
2022/09/01 01:02:32;;;;;;;9.00;4.38;;;17.70;99.90;;;;;;5021342;28;20030;-77
2022/09/01 01:04:59;;;;;;;7.00;4.70;;;17.60;99.90;;;;;;5004936;28;20085;-77
2022/09/01 01:07:26;;;;;;;3.95;3.53;;;17.60;99.90;;;;;;4989106;28;20072;-78
2022/09/01 01:09:51;;;;;;;4.32;3.92;;;17.60;99.90;;;;;;5005275;28;20026;-77
2022/09/01 01:12:17;;;;;;;6.00;4.20;;;17.50;99.90;;;;;;5005651;28;20037;-78
2022/09/01 01:14:49;;;;;;;7.83;4.27;;;17.50;99.90;;;;;;5005143;28;20420;-78
2022/09/01 01:17:19;;;;;;;5.60;4.22;;;17.40;99.90;;;;;;5005344;28;20026;-78
2022/09/01 01:23:05;;;;;;;6.10;4.00;;;17.40;99.90;;;;;;5006006;28;20049;-79
2022/09/01 01:25:40;;;;;;;6.57;4.13;;;17.40;99.90;;;;;;5006116;28;20264;-79
2022/09/01 01:28:16;;;;;;;4.50;4.10;;;17.30;99.90;;;;;;5006609;28;20030;-79
2022/09/01 01:30:51;;;;;;;4.40;3.67;;;17.30;99.90;;;;;;5005503;28;20018;-79
2022/09/01 01:33:19;;;;;;;5.03;3.95;;;17.20;99.90;;;;;;5005555;28;20341;-79
2022/09/01 01:35:45;;;;;;;5.97;4.30;;;17.20;99.90;;;;;;5005857;28;20034;-79
2022/09/01 01:38:15;;;;;;;4.75;4.25;;;17.20;99.90;;;;;;5056270;23;20044;-73
2022/09/01 01:40:41;;;;;;;6.70;4.53;;;17.20;99.90;;;;;;5056143;28;20343;-73
2022/09/01 01:43:06;;;;;;;7.87;4.77;;;17.10;99.90;;;;;;5065389;28;20044;-73
2022/09/01 01:45:32;;;;;;;6.37;4.50;;;17.10;99.90;;;;;;5065517;28;20021;-73
2022/09/01 01:47:59;;;;;;;5.40;4.10;;;17.10;99.90;;;;;;5046853;28;20029;-73
2022/09/01 01:50:32;;;;;;;4.93;4.28;;;17.00;99.90;;;;;;5045360;28;20025;-73
2022/09/01 01:53:00;;;;;;;6.40;4.30;;;16.90;99.90;;;;;;5059768;28;20028;-73
2022/09/01 01:55:27;;;;;;;6.95;4.28;;;16.90;99.90;;;;;;5060365;28;20272;-73
2022/09/01 01:57:55;;;;;;;7.32;4.15;;;16.90;99.90;;;;;;5060553;28;20030;-73
2022/09/01 02:00:25;;;;;;;5.82;4.82;;;16.90;99.90;;;;;;5060725;28;20021;-73
2022/09/01 02:02:51;;;;;;;5.68;4.57;;;16.80;99.90;;;;;;5043920;28;20028;-73
2022/09/01 02:05:23;;;;;;;8.87;5.33;;;16.80;99.90;;;;;;5059702;28;20033;-73
2022/09/01 02:07:54;;;;;;;5.80;4.22;;;16.80;99.90;;;;;;5060202;28;20037;-73
2022/09/01 02:10:22;;;;;;;5.45;4.78;;;16.80;99.90;;;;;;5060252;28;20013;-73
2022/09/01 02:12:49;;;;;;;5.50;4.18;;;16.80;99.90;;;;;;5059426;28;20096;-73
2022/09/01 02:15:15;;;;;;;8.25;4.45;;;16.80;99.90;;;;;;5044477;28;20217;-73
2022/09/01 02:17:42;;;;;;;9.87;4.80;;;16.80;99.90;;;;;;5045658;28;20036;-73
2022/09/01 02:20:08;;;;;;;;;;;16.80;99.90;;;;;;5061355;28;20039;-73
2022/09/01 02:22:36;;;;;;;;;;;16.80;99.90;;;;;;5027909;28;19912;-73
2022/09/01 02:25:05;;;;;;;;;;;16.80;99.90;;;;;;5045169;28;19968;-73
2022/09/01 02:27:34;;;;;;;;;;;16.70;99.90;;;;;;5045510;28;19948;-72
2022/09/01 02:30:00;;;;;;;;;;;16.70;99.90;;;;;;5027778;28;19905;-74
2022/09/01 02:32:26;;;;;;;;;;;16.70;99.90;;;;;;5044834;28;19905;-74
2022/09/01 02:35:00;;;;;;;;;;;16.70;99.90;;;;;;5044356;28;20219;-74
2022/09/01 02:37:25;;;;;;;;;;;16.70;99.90;;;;;;5043024;28;19932;-74
2022/09/01 02:39:56;;;;;;;;;;;16.60;99.90;;;;;;5044756;28;19917;-74
2022/09/01 02:42:25;;;;;;;;;;;16.60;99.90;;;;;;5027656;28;19940;-74
2022/09/01 02:44:52;;;;;;;;;;;16.60;99.90;;;;;;5044395;28;19905;-73
2022/09/01 02:47:18;;;;;;;;;;;16.50;99.90;;;;;;5042779;28;19905;-73
2022/09/01 02:49:45;;;;;;;;;;;16.50;99.90;;;;;;5044246;28;19913;-74
2022/09/01 02:52:14;;;;;;;;;;;16.50;99.90;;;;;;5044209;28;19994;-73
2022/09/01 02:54:44;;;;;;;;;;;16.40;99.90;;;;;;5043746;28;19912;-73
2022/09/01 02:57:10;;;;;;;;;;;16.40;99.90;;;;;;5044177;28;19905;-73
2022/09/01 02:59:36;;;;;;;;;;;16.40;99.90;;;;;;5043268;28;19980;-73
2022/09/01 03:02:02;;;;;;;;;;;16.30;99.90;;;;;;5010549;28;19909;-73
2022/09/01 03:04:28;;;;;;;;;;;16.30;99.90;;;;;;5044081;28;19940;-73
2022/09/01 03:06:57;;;;;;;;;;;16.30;99.90;;;;;;5043435;28;19913;-73
2022/09/01 03:09:23;;;;;;;;;;;16.30;99.90;;;;;;5043932;28;19908;-73
2022/09/01 03:11:50;;;;;;;;;;;16.20;99.90;;;;;;5026811;28;19980;-73
2022/09/01 03:14:16;;;;;;;;;;;16.10;99.90;;;;;;5042880;28;19971;-73
2022/09/01 03:16:41;;;;;;;;;;;16.20;99.90;;;;;;5024048;28;19906;-73
2022/09/01 03:19:08;;;;;;;;;;;16.10;99.90;;;;;;5024279;28;19929;-73
2022/09/01 03:21:39;;;;;;;;;;;16.10;99.90;;;;;;5023097;28;19959;-72
2022/09/01 03:24:07;;;;;;;;;;;16.00;99.90;;;;;;5038804;28;19905;-73
2022/09/01 03:26:34;;;;;;;;;;;16.00;99.90;;;;;;5023202;28;19944;-73
2022/09/01 03:29:00;;;;;;;;;;;16.00;99.90;;;;;;5039505;28;19917;-72
2022/09/01 03:31:27;;;;;;;;;;;16.00;99.90;;;;;;5023766;28;19912;-73
2022/09/01 03:33:55;;;;;;;;;;;16.00;99.90;;;;;;5023317;28;19919;-73
2022/09/01 03:36:24;;;;;;;;;;;15.90;99.90;;;;;;5039395;28;19911;-73
2022/09/01 03:38:50;;;;;;;;;;;15.90;99.90;;;;;;5022784;28;19909;-73
2022/09/01 03:41:18;;;;;;;;;;;15.90;99.90;;;;;;5039352;28;19912;-73
2022/09/01 03:43:44;;;;;;;;;;;15.90;99.90;;;;;;5038960;28;20120;-73
2022/09/01 03:46:10;;;;;;;;;;;15.80;99.90;;;;;;5023925;28;19951;-73
2022/09/01 03:48:36;;;;;;;;;;;15.70;99.90;;;;;;5043146;28;20222;-73
2022/09/01 03:51:02;;;;;;;;;;;15.70;99.90;;;;;;5042811;28;19944;-72
2022/09/01 03:53:29;;;;;;;;;;;15.70;99.90;;;;;;5042461;28;19908;-72
2022/09/01 03:55:56;;;;;;;;;;;15.60;99.90;;;;;;5043160;28;20007;-73
2022/09/01 03:58:22;;;;;;;;;;;15.60;99.90;;;;;;5041813;28;20103;-72
2022/09/01 04:00:54;;;;;;;;;;;15.60;99.90;;;;;;5041772;28;20242;-73
2022/09/01 04:03:21;;;;;;;;;;;15.50;99.90;;;;;;5041691;28;20204;-73
2022/09/01 04:05:48;;;;;;;;;;;15.50;99.90;;;;;;5041733;28;19905;-73
2022/09/01 04:08:14;;;;;;;;;;;15.40;99.90;;;;;;5042624;28;19932;-72
2022/09/01 04:10:50;;;;;;;;;;;15.40;99.90;;;;;;5042904;28;19905;-73
2022/09/01 04:13:25;;;;;;;;;;;15.40;99.90;;;;;;5042670;28;19920;-73
2022/09/01 04:15:50;;;;;;;;;;;15.30;99.90;;;;;;5042904;28;19905;-73
2022/09/01 04:18:19;;;;;;;;;;;15.30;99.90;;;;;;5041740;28;19911;-72
2022/09/01 04:20:49;;;;;;;;;;;15.30;99.90;;;;;;5042206;28;19905;-72
2022/09/01 04:23:25;;;;;;;;;;;15.30;99.90;;;;;;5041958;28;19911;-73
2022/09/01 04:26:07;;;;;;;;;;;15.30;99.90;;;;;;5043035;28;19904;-73
2022/09/01 04:28:38;;;;;;;;;;;15.30;99.90;;;;;;5027038;28;19909;-73
2022/09/01 04:31:08;;;;;;;;;;;15.20;99.90;;;;;;5046890;28;19917;-73
2022/09/01 04:33:38;;;;;;;;;;;15.20;99.90;;;;;;5045544;28;20235;-73
2022/09/01 04:36:19;;;;;;;;;;;15.20;99.90;;;;;;5045125;28;19912;-73
2022/09/01 04:38:45;;;;;;;;;;;15.10;99.90;;;;;;5045601;28;20207;-74
2022/09/01 04:41:16;;;;;;;;;;;15.10;99.90;;;;;;5045023;28;19912;-74
2022/09/01 04:43:46;;;;;;;;;;;15.10;99.90;;;;;;5044957;28;20139;-72
2022/09/01 04:46:15;;;;;;;;;;;15.10;99.90;;;;;;5045661;28;19905;-72
2022/09/01 04:48:43;;;;;;;;;;;15.10;99.90;;;;;;5044466;28;20116;-72
2022/09/01 04:51:11;;;;;;;;;;;15.10;99.90;;;;;;5045697;28;20273;-72
2022/09/01 04:53:37;;;;;;;;;;;15.10;99.90;;;;;;5045105;28;19911;-72
2022/09/01 04:56:07;;;;;;;;;;;15.10;99.90;;;;;;5045593;28;20026;-70
2022/09/01 04:58:33;;;;;;;;;;;15.10;99.90;;;;;;5045496;28;19905;-70
2022/09/01 05:01:06;;;;;;;;;;;15.10;99.90;;;;;;5045519;28;19936;-70
2022/09/01 05:03:31;;;;;;;;;;;15.10;99.90;;;;;;5045474;28;19905;-70
2022/09/01 05:06:00;;;;;;;;;;;15.10;99.90;;;;;;5045320;28;19905;-71
2022/09/01 05:08:25;;;;;;;;;;;15.10;99.90;;;;;;5043865;28;19917;-71
2022/09/01 05:10:54;;;;;;;;;;;15.10;99.90;;;;;;5045268;28;20014;-70
2022/09/01 05:13:21;;;;;;;;;;;15.10;99.90;;;;;;5044095;28;19948;-70
2022/09/01 05:15:47;;;;;;;;;;;15.10;99.90;;;;;;5044039;28;19973;-70
2022/09/01 05:18:22;;;;;;;;;;;15.10;99.90;;;;;;5045032;28;19905;-70
2022/09/01 05:20:49;;;;;;;;;;;15.20;99.90;;;;;;5045207;28;19927;-71
2022/09/01 05:23:18;;;;;;;;;;;15.20;99.90;;;;;;5044733;28;19905;-71
2022/09/01 05:25:45;;;;;;;;;;;15.20;99.90;;;;;;5045058;28;19975;-71
2022/09/01 05:28:14;;;;;;;;;;;15.30;99.90;;;;;;5044973;28;19916;-71
2022/09/01 05:30:40;;;;;;;;;;;15.30;99.90;;;;;;5044928;28;19912;-71
2022/09/01 05:33:10;;;;;;;;;;;15.30;99.90;;;;;;5044649;28;19905;-71
2022/09/01 05:35:43;;;;;;;;;;;15.40;99.90;;;;;;5043781;28;19940;-71
2022/09/01 05:38:14;;;;;;;;;;;15.40;99.90;;;;;;5044442;28;20236;-71
2022/09/01 05:40:41;;;;;;;;;;;15.50;99.90;;;;;;5044681;28;19912;-70
2022/09/01 05:43:09;;;;;;;;;;;15.50;99.90;;;;;;5043427;28;19912;-71
2022/09/01 05:45:35;;;;;;;;;;;15.60;99.90;;;;;;5044729;28;19905;-71
2022/09/01 05:48:02;;;;;;;;;;;15.60;99.90;;;;;;5043934;28;19966;-71
2022/09/01 05:50:28;;;;;;;;;;;15.60;99.90;;;;;;5044691;28;19927;-70
2022/09/01 05:52:53;;;;;;;;;;;15.70;99.90;;;;;;5044203;28;19925;-70
2022/09/01 05:55:19;;;;;;;;;;;15.70;99.90;;;;;;5044364;28;19913;-70
2022/09/01 05:57:46;;;;;;;;;;;15.80;99.90;;;;;;5044409;28;19920;-70
2022/09/01 06:00:13;;;;;;;;;;;15.80;99.90;;;;;;5044440;28;19912;-70
2022/09/01 06:02:39;;;;;;;;;;;15.90;99.90;;;;;;5044383;28;19935;-71
2022/09/01 06:05:06;;;;;;;;;;;16.00;99.90;;;;;;5044325;28;19912;-70
2022/09/01 06:07:32;;;;;;;;;;;16.00;99.90;;;;;;5044184;28;19919;-70
2022/09/01 06:09:59;;;;;;;;;;;16.00;99.90;;;;;;5043893;28;20014;-70
2022/09/01 06:12:25;;;;;;;;;;;16.10;99.90;;;;;;5043035;28;19951;-70
2022/09/01 06:14:52;;;;;;;;;;;16.10;99.90;;;;;;5043803;28;19912;-70
2022/09/01 06:17:23;;;;;;;;;;;16.20;99.90;;;;;;5043960;28;20397;-70
2022/09/01 06:19:51;;;;;;;;;;;16.20;99.90;;;;;;5044131;28;19919;-70
2022/09/01 06:22:19;;;;;;;;;;;16.30;99.90;;;;;;5043921;28;20089;-70
2022/09/01 06:24:46;;;;;;;;;;;16.30;99.90;;;;;;5043415;28;19943;-69
2022/09/01 06:27:13;;;;;;;;;;;16.40;99.90;;;;;;5043816;28;19909;-68
2022/09/01 06:29:40;;;;;;;;;;;16.50;99.90;;;;;;5043729;28;19933;-71
2022/09/01 06:32:08;;;;;;;;;;;16.60;99.90;;;;;;5043887;28;19905;-70
2022/09/01 06:34:43;;;;;;;;;;;16.70;99.90;;;;;;5043763;28;19913;-69
2022/09/01 06:37:09;;;;;;;;;;;16.80;99.90;;;;;;5043751;28;19919;-69
2022/09/01 06:39:36;;;;;;;;;;;16.90;99.90;;;;;;5042484;28;20199;-69
2022/09/01 06:42:02;;;;;;;;;;;17.00;99.90;;;;;;5043737;28;19912;-68
2022/09/01 06:44:29;;;;;;;;;;;17.00;99.90;;;;;;5043480;28;19971;-69
2022/09/01 06:46:55;;;;;;;;;;;17.10;99.90;;;;;;5038562;28;19932;-69
2022/09/01 06:49:22;;;;;;;;;;;17.10;99.90;;;;;;5023915;28;19909;-68
2022/09/01 06:51:51;;;;;;;;;;;17.20;99.90;;;;;;5023243;28;19905;-69
2022/09/01 06:54:18;;;;;;;;;;;17.20;99.90;;;;;;5023496;28;20138;-69
2022/09/01 06:56:44;;;;;;;;;;;17.30;99.90;;;;;;5022713;28;20216;-69
2022/09/01 06:59:11;;;;;;;;;;;17.40;99.90;;;;;;5023677;28;20056;-69
2022/09/01 07:01:38;;;;;;;;;;;17.40;99.90;;;;;;5023597;28;20220;-69
2022/09/01 07:04:03;;;;;;;;;;;17.50;99.90;;;;;;5023419;28;19941;-69
2022/09/01 07:06:30;;;;;;;;;;;17.50;99.90;;;;;;5023644;28;19920;-71
2022/09/01 07:08:57;;;;;;;;;;;17.50;99.90;;;;;;5023335;28;19909;-70
2022/09/01 07:11:29;;;;;;;;;;;17.60;99.90;;;;;;5038774;28;20275;-70
2022/09/01 07:13:57;;;;;;;;;;;17.60;99.90;;;;;;5023389;28;19905;-70
2022/09/01 07:16:25;;;;;;;;;;;17.70;99.90;;;;;;5038714;28;19935;-70
2022/09/01 07:18:53;;;;;;;;;;;17.70;99.90;;;;;;5023445;28;19940;-70
2022/09/01 07:21:19;;;;;;;;;;;17.70;99.90;;;;;;5023398;28;19914;-70
2022/09/01 07:23:45;;;;;;;;;;;17.80;99.90;;;;;;5023107;28;20136;-71
2022/09/01 07:26:16;;;;;;;;;;;17.90;99.90;;;;;;5039035;28;19972;-70
2022/09/01 07:28:44;;;;;;;;;;;17.80;99.90;;;;;;5038197;28;19956;-70
2022/09/01 07:31:19;;;;;;;;;;;17.90;99.90;;;;;;5039172;28;19906;-70
2022/09/01 07:33:47;;;;;;;;;;;18.00;99.90;;;;;;5023436;28;19912;-70
2022/09/01 07:36:14;;;;;;;;;;;18.10;99.90;;;;;;5023503;28;19905;-71
2022/09/01 07:38:42;;;;;;;;;;;18.10;99.90;;;;;;5023102;28;19909;-70
2022/09/01 07:41:11;;;;;;;;;;;18.10;99.90;;;;;;5023530;28;19920;-71
2022/09/01 07:43:38;;;;;;;;;;;18.20;99.90;;;;;;5023259;28;19905;-71
2022/09/01 07:46:05;;;;;;;;;;;18.20;99.90;;;;;;5022449;28;19920;-71
2022/09/01 07:48:31;;;;;;;;;;;18.20;99.90;;;;;;5023447;28;20228;-71
2022/09/01 07:50:56;;;;;;;;;;;18.30;99.90;;;;;;5023468;28;19905;-71
2022/09/01 07:53:24;;;;;;;;;;;18.30;99.90;;;;;;5023001;28;20072;-71
2022/09/01 07:55:50;;;;;;;;;;;18.40;99.90;;;;;;5023214;28;19920;-70
2022/09/01 07:58:20;;;;;;;;;;;18.40;99.90;;;;;;5023030;28;19928;-70
2022/09/01 08:00:48;;;;;;;;;;;18.50;99.90;;;;;;5023511;28;19906;-71
2022/09/01 08:03:18;;;;;;;;;;;18.60;99.90;;;;;;5038016;28;19913;-71
2022/09/01 08:05:44;;;;;;;;;;;18.60;99.90;;;;;;5027256;28;19917;-71
2022/09/01 08:08:10;;;;;;;;;;;18.70;99.90;;;;;;5042377;28;19932;-71
2022/09/01 08:10:44;;;;;;;;;;;18.90;99.90;;;;;;5027180;28;20208;-71
2022/09/01 08:13:10;;;;;;;;;;;19.00;99.90;;;;;;5026213;28;19975;-71
2022/09/01 08:15:39;;;;;;;;;;;19.10;99.90;;;;;;5026861;28;19905;-71
2022/09/01 08:18:05;;;;;;;;;;;19.20;99.90;;;;;;5026851;28;19906;-71
2022/09/01 08:20:33;;;;;;;;;;;19.30;99.90;;;;;;5026667;28;19905;-71
2022/09/01 08:23:00;;;;;;;;;;;19.40;99.90;;;;;;5026485;28;20211;-71
2022/09/01 08:25:26;;;;;;;;;;;19.50;99.90;;;;;;5026268;28;19906;-71
2022/09/01 08:27:51;;;;;;;;;;;19.60;99.90;;;;;;5025679;28;19909;-71
2022/09/01 08:30:17;;;;;;;;;;;19.70;99.90;;;;;;5026592;28;20250;-71
2022/09/01 08:32:43;;;;;;;;;;;19.80;99.90;;;;;;5026562;28;19906;-73
2022/09/01 08:35:09;;;;;;;;;;;19.80;99.90;;;;;;5041646;28;19944;-72
2022/09/01 08:37:35;;;;;;;;;;;19.90;99.90;;;;;;5026085;28;19910;-72
2022/09/01 08:40:02;;;;;;;;;;;19.90;99.90;;;;;;5025952;28;19912;-72
2022/09/01 08:42:31;;;;;;;;;;;20.00;99.90;;;;;;5026070;28;19928;-71
2022/09/01 08:45:08;;;;;;;;;;;20.10;99.90;;;;;;5027860;28;20077;-72
2022/09/01 08:47:35;;;;;;;;;;;20.20;99.90;;;;;;5040047;28;19959;-71
2022/09/01 08:50:02;;;;;;;;;;;20.30;99.90;;;;;;5028018;28;19913;-71
2022/09/01 08:52:49;;;;;;;;;;;20.30;99.90;;;;;;5045682;28;20307;-71
2022/09/01 08:55:42;;;;;;;;;;;20.40;99.90;;;;;;5044304;28;19905;-71
2022/09/01 08:58:09;;;;;;;;;;;20.50;99.90;;;;;;5048293;28;19919;-71
2022/09/01 09:00:41;;;;;;;;;;;20.60;99.90;;;;;;5045485;28;19913;-71
2022/09/01 09:03:33;;;;;;;;;;;20.60;99.90;;;;;;5044325;28;19905;-71
2022/09/01 09:06:06;;;;;;;;;;;20.70;99.90;;;;;;5044493;28;19913;-71
2022/09/01 09:08:50;;;;;;;;;;;20.70;99.90;;;;;;5044077;28;19905;-71
2022/09/01 09:11:40;;;;;;;;;;;20.80;99.90;;;;;;5044182;28;20115;-71
2022/09/01 09:14:25;;;;;;;;;;;20.80;99.90;;;;;;5044669;28;20157;-71
2022/09/01 09:16:54;;;;;;;;;;;20.80;99.90;;;;;;5045211;28;19935;-71
2022/09/01 09:19:23;;;;;;;;;;;20.90;99.90;;;;;;5043983;28;19927;-71
2022/09/01 09:21:50;;;;;;;;;;;20.90;99.90;;;;;;5045168;28;19912;-69
2022/09/01 09:24:19;;;;;;;;;;;21.00;99.90;;;;;;5044866;28;19943;-69
2022/09/01 09:26:49;;;;;;;;;;;21.00;99.90;;;;;;5044921;28;19913;-69
2022/09/01 09:29:14;;;;;;;;;;;21.00;99.90;;;;;;5044986;28;20214;-70
2022/09/01 09:31:47;;;;;;;;;;;21.10;99.90;;;;;;5045005;28;19909;-70
2022/09/01 09:34:26;;;;;;;;;;;21.20;99.90;;;;;;5045097;28;20258;-70
2022/09/01 09:36:55;;;;;;;;;;;21.20;99.90;;;;;;5045439;28;19909;-72
2022/09/01 09:39:22;;;;;;;;;;;21.30;99.90;;;;;;5044850;28;20243;-68
2022/09/01 09:42:06;;;;;;;;;;;21.40;99.90;;;;;;5044901;28;19912;-69
2022/09/01 09:44:32;;;;;;;;;;;21.40;99.90;;;;;;5044943;28;19912;-68
2022/09/01 09:46:57;;;;;;;;;;;21.50;99.90;;;;;;5045180;28;19905;-68
2022/09/01 09:49:31;;;;;;;;;;;21.60;99.90;;;;;;5026211;28;19912;-68
2022/09/01 09:52:13;;;;;;;;;;;21.60;99.90;;;;;;5044299;28;19932;-67
2022/09/01 09:54:56;;;;;;;;;;;21.60;99.90;;;;;;5042920;28;19920;-67
2022/09/01 09:57:22;;;;;;;;;;;21.70;99.90;;;;;;5044483;28;19950;-69
2022/09/01 09:59:53;;;;;;;;;;;21.80;99.90;;;;;;5044468;28;20197;-69
2022/09/01 10:02:39;;;;;;;;;;;21.80;99.90;;;;;;5043474;28;19920;-69
2022/09/01 10:05:34;;;;;;;;;;;21.90;99.90;;;;;;5026604;28;20103;-69
2022/09/01 10:08:00;;;;;;;;;;;21.90;99.90;;;;;;5044338;28;19905;-69
2022/09/01 10:10:37;;;;;;;;;;;22.00;99.90;;;;;;5044216;28;19992;-68
2022/09/01 10:13:03;;;;;;;;;;;22.10;99.90;;;;;;5044403;28;19951;-68
2022/09/01 10:15:30;;;;;;;;;;;22.10;99.90;;;;;;5044030;28;19913;-68
2022/09/01 10:18:04;;;;;;;;;;;22.20;99.90;;;;;;5042415;28;19917;-68
2022/09/01 10:20:29;;;;;;;;;;;22.20;99.90;;;;;;5027441;28;20202;-76
2022/09/01 10:22:55;;;;;;;;;;;22.30;99.90;;;;;;5042965;28;19905;-73
2022/09/01 10:25:24;;;;;;;;;;;22.30;99.90;;;;;;5042549;28;20081;-73
2022/09/01 10:28:00;;;;;;;;;;;22.30;97.80;;;;;;5025531;28;19919;-72
2022/09/01 10:30:26;;;;;;;;;;;22.40;99.70;;;;;;5026919;28;20203;-70
2022/09/01 10:32:57;;;;;;;;;;;22.40;99.90;;;;;;5042531;28;19951;-70
2022/09/01 10:35:30;;;;;;;;;;;22.50;96.40;;;;;;5042930;28;20207;-70
2022/09/01 10:37:57;;;;;;;;;;;22.50;96.40;;;;;;5042548;28;19944;-70
2022/09/01 10:40:27;;;;;;;;;;;22.60;96.60;;;;;;5042537;28;20009;-70
2022/09/01 10:43:26;;;;;;;;;;;22.60;97.40;;;;;;5043457;28;19905;-70
2022/09/01 10:45:51;;;;;;;;;;;22.70;99.90;;;;;;5043581;28;19976;-70
2022/09/01 10:48:20;;;;;;;;;;;22.80;98.80;;;;;;5042900;28;19905;-69
2022/09/01 10:50:46;;;;;;;;;;;22.90;99.60;;;;;;5043642;28;19913;-69
2022/09/01 10:53:34;;;;;;;;;;;23.00;97.20;;;;;;5043129;28;19913;-70
2022/09/01 10:56:26;;;;;;;;;;;23.00;94.10;;;;;;5043387;28;19913;-71
2022/09/01 10:59:01;;;;;;;;;;;23.10;94.90;;;;;;5042471;28;19951;-71
2022/09/01 11:02:03;;;;;;;;;;;23.20;92.70;;;;;;5043490;28;20104;-71
2022/09/01 11:04:29;;;;;;;;;;;23.20;94.30;;;;;;5036147;28;19951;-78
2022/09/01 11:07:05;;;;;;;;;;;23.20;93.50;;;;;;5045646;28;19904;-78
2022/09/01 11:09:33;;;;;;;;;;;23.20;93.10;;;;;;5009759;28;20204;-79
2022/09/01 11:12:19;;;;;;;;;;;23.30;93.10;;;;;;5009820;28;19927;-79
2022/09/01 11:14:56;;;;;;;;;;;23.40;94.40;;;;;;5028480;28;19955;-78
2022/09/01 11:17:43;;;;;;;;;;;23.40;93.50;;;;;;5025028;28;19976;-77
2022/09/01 11:20:28;;;;;;;;;;;23.40;94.50;;;;;;5022403;28;19990;-77
2022/09/01 11:23:10;;;;;;;;;;;23.50;92.70;;;;;;5006580;28;19920;-77
2022/09/01 11:25:53;;;;;;;;;;;23.50;91.90;;;;;;5024304;28;19905;-77
2022/09/01 11:28:22;;;;;;;;;;;23.50;87.30;;;;;;5007433;28;19920;-77
2022/09/01 11:30:54;;;;;;;;;;;23.30;87.80;;;;;;5025091;28;19909;-78
2022/09/01 11:33:38;;;;;;;;;;;23.10;91.20;;;;;;5024745;28;19912;-78
2022/09/01 11:36:29;;;;;;;;;;;23.10;93.10;;;;;;5023789;28;19949;-78
2022/09/01 11:39:08;;;;;;;;;;;23.00;94.70;;;;;;5023605;28;19947;-78
2022/09/01 11:41:42;;;;;;;;;;;23.00;93.70;;;;;;5023551;28;19917;-77
2022/09/01 11:44:23;;;;;;;;;;;22.90;95.70;;;;;;5021793;28;20105;-76
2022/09/01 11:46:49;;;;;;;;;;;22.90;96.10;;;;;;5006660;28;19913;-77
2022/09/01 11:49:35;;;;;;;;;;;22.80;96.50;;;;;;5038520;28;19927;-76
2022/09/01 11:52:01;;;;;;;;;;;22.80;95.50;;;;;;5041685;28;19909;-75
2022/09/01 11:54:28;;;;;;;;;;;22.80;94.30;;;;;;5024720;28;19904;-76
2022/09/01 11:56:53;;;;;;;;;;;22.80;94.10;;;;;;5008629;28;19909;-76
2022/09/01 11:59:36;;;;;;;;;;;22.70;94.80;;;;;;5042756;28;20226;-76
2022/09/01 12:02:02;;;;;;;;;;;22.80;96.00;;;;;;5042720;28;19948;-75
2022/09/01 12:04:35;;;;;;;;;;;22.80;96.10;;;;;;5024979;28;19909;-75
2022/09/01 12:07:07;;;;;;;;;;;22.90;95.30;;;;;;5041409;28;19912;-75
2022/09/01 12:09:43;;;;;;;;;;;23.00;96.00;;;;;;5041155;28;19912;-76
2022/09/01 12:12:28;;;;;;;;;;;23.10;95.20;;;;;;5042571;28;19917;-75
2022/09/01 12:14:58;;;;;;;;;;;23.10;97.50;;;;;;5041144;28;20097;-75
2022/09/01 12:17:24;;;;;;;;;;;23.10;93.50;;;;;;5024963;28;19948;-75
2022/09/01 12:19:50;;;;;;;;;;;23.00;93.90;;;;;;5041273;28;19905;-75
2022/09/01 12:22:17;;;;;;;;;;;22.90;95.50;;;;;;5042328;28;19952;-75
2022/09/01 12:24:44;;;;;;;;;;;22.90;97.00;;;;;;5024260;28;19972;-76
2022/09/01 12:27:10;;;;;;;;;;;22.90;97.30;;;;;;5041146;28;19905;-75
2022/09/01 12:29:36;;;;;;;;;;;22.90;96.40;;;;;;5041166;28;19905;-76
2022/09/01 12:32:02;;;;;;;;;;;23.00;99.00;;;;;;5008433;28;20109;-76
2022/09/01 12:34:58;;;;;;;;;;;23.00;95.40;;;;;;5024529;28;20139;-76
2022/09/01 12:37:25;;;;;;;;;;;23.10;94.90;;;;;;5026220;28;20185;-76
2022/09/01 12:39:53;;;;;;;;;;;23.10;94.50;;;;;;5008395;28;19905;-76
2022/09/01 12:42:18;;;;;;;;;;;23.10;94.10;;;;;;5025111;28;19913;-76
2022/09/01 12:44:45;;;;;;;;;;;23.00;94.00;;;;;;5042033;28;19905;-76
2022/09/01 12:47:46;;;;;;;;;;;23.00;94.60;;;;;;5042090;28;19912;-76
2022/09/01 12:50:12;;;;;;;;;;;23.00;94.90;;;;;;5000999;28;19917;-75
2022/09/01 12:52:51;;;;;;;;;;;22.90;96.00;;;;;;5045684;28;19912;-75
2022/09/01 12:55:24;;;;;;;;;;;23.00;97.70;;;;;;5044528;28;19905;-75
2022/09/01 12:57:52;;;;;;;;;;;23.00;96.80;;;;;;5029331;28;20189;-76
2022/09/01 13:00:20;;;;;;;;;;;23.10;97.20;;;;;;5011804;28;20027;-76
2022/09/01 13:03:01;;;;;;;;;;;23.10;97.50;;;;;;5044284;28;20239;-76
2022/09/01 13:05:34;;;;;;;;;;;23.20;95.10;;;;;;5045700;28;19927;-75
2022/09/01 13:08:05;;;;;;;;;;;23.20;97.20;;;;;;5027807;28;19905;-76
2022/09/01 13:10:54;;;;;;;;;;;23.30;97.40;;;;;;5011819;28;19909;-76
2022/09/01 13:13:20;;;;;;;;;;;23.40;95.60;;;;;;5030239;28;19968;-76
2022/09/01 13:15:49;;;;;;;;;;;23.40;95.90;;;;;;5027919;28;19905;-76
2022/09/01 13:18:15;;;;;;;;;;;23.40;93.60;;;;;;5011642;28;19951;-75
2022/09/01 13:20:41;;;;;;;;;;;23.50;93.20;;;;;;5027820;28;19905;-75
2022/09/01 13:23:07;;;;;;;;;;;23.70;93.40;;;;;;5045057;28;19912;-76
2022/09/01 13:25:34;;;;;;;;;;;23.80;92.90;;;;;;5027473;28;20200;-76
2022/09/01 13:28:01;;;;;;;;;;;24.00;90.30;;;;;;5044992;28;19919;-76
2022/09/01 13:30:27;;;;;;;;;;;24.10;87.20;;;;;;5043923;28;19972;-76
2022/09/01 13:32:53;;;;;;;;;;;24.20;87.80;;;;;;5043820;28;19912;-76
2022/09/01 13:35:19;;;;;;;;;;;24.30;90.70;;;;;;5044982;28;20204;-76
2022/09/01 13:37:45;;;;;;;;;;;24.40;90.70;;;;;;5043708;28;19909;-76
2022/09/01 13:40:14;;;;;;;;;;;24.50;91.50;;;;;;5026585;28;19912;-76
2022/09/01 13:42:51;;;;;;;;;;;24.70;92.50;;;;;;5043684;28;19913;-77
2022/09/01 13:45:17;;;;;;;;;;;25.20;93.80;;;;;;5027505;28;19905;-76
2022/09/01 13:47:44;;;;;;;;;;;26.20;92.20;;;;;;5027121;28;19943;-77
2022/09/01 13:50:12;;;;;;;;;;;26.80;88.70;;;;;;5027309;28;19916;-77
2022/09/01 13:52:39;;;;;;;;;;;27.50;78.30;;;;;;5027241;28;20298;-77
2022/09/01 13:55:05;;;;;;;;;;;28.90;80.10;;;;;;5043452;28;19916;-77
2022/09/01 13:57:32;;;;;;;;;;;30.40;62.10;;;;;;5027095;28;19939;-76
2022/09/01 13:59:58;;;;;;;;;;;31.60;63.30;;;;;;5044668;28;19940;-77
2022/09/01 14:02:25;;;;;;;;;;;32.80;56.60;;;;;;5044396;28;19935;-77
2022/09/01 14:04:50;;;;;;;;;;;33.90;51.70;;;;;;5043022;28;19904;-77
2022/09/01 14:07:17;;;;;;;;;;;34.80;48.00;;;;;;5044319;28;19951;-76
2022/09/01 14:09:44;;;;;;;;;;;35.60;46.70;;;;;;5043005;28;19905;-76
2022/09/01 14:12:10;;;;;;;;;;;36.30;42.90;;;;;;5043235;28;19909;-76
2022/09/01 14:14:35;;;;;;;;;;;37.00;41.30;;;;;;5042954;28;19976;-77
2022/09/01 14:17:02;;;;;;;;;;;37.50;41.50;;;;;;5042940;28;19905;-78
2022/09/01 14:19:28;;;;;;;;;;;38.20;37.70;;;;;;5042994;28;19905;-77